»·PEaware :: UAL2276 KLAX-KLAS

UAL2276 :: KLAX-KLAS

FLIGHT INFORMATION

Flight Status: Arrived
Operator:
United Airlines
More flights by this operator :: More flights under this callsign
Pilot: Drew L. (13237)
Aircraft: BOEING 757-200
(B752)
More flights by this aircraft type
Origin: KLAX Los Angeles Intl
United States
Destination: KLAS McCarran Intl
United States
More flights between these airports :: More routes between these airports
Route: +ORCKA1 MISEN KEPEC4
File this flight plan on PilotEdge
Remarks: Sample flight plan
Altitude:
(Current/Filed)
27,000ft
Speed:
(Current/Filed)
115kts
Departed: 28-May-17 05:24 PM
Arrived: 28-May-17 06:09 PM
Distance/Time
Traveled:
205nm/0:44
Distance/Time
To Go:
Arrived

Flight Plot

Page will automatically refresh every two minutes.

Flight plan parsing failed; only flown route is shown


Map Options




Map Legend


Flown Route
Filed Route
Departure Airport
Arrival Airport
Navaid (VOR, NDB)
Fix

Horizontal Profiles

Position Reports

Time Latitude Longitude Heading Altitude Ground
Speed
28-May-17 16:40 33.940317 -118.399800 34 136ft 0kts
28-May-17 16:41 33.940317 -118.399800 34 136ft 0kts
28-May-17 16:42 33.940317 -118.399800 34 136ft 0kts
28-May-17 16:43 33.940317 -118.399800 34 136ft 0kts
28-May-17 16:44 33.940317 -118.399800 34 136ft 0kts
28-May-17 16:45 33.940317 -118.399800 34 136ft 0kts
28-May-17 16:46 33.940317 -118.399800 34 136ft 0kts
28-May-17 16:47 33.940317 -118.399800 34 136ft 0kts
28-May-17 16:48 33.940317 -118.399800 34 136ft 0kts
28-May-17 16:49 33.940317 -118.399800 34 136ft 0kts
28-May-17 16:50 33.940317 -118.399800 34 136ft 0kts
28-May-17 16:51 33.940317 -118.399800 34 136ft 0kts
28-May-17 16:52 33.940317 -118.399800 34 136ft 0kts
28-May-17 16:53 33.940317 -118.399800 34 136ft 0kts
28-May-17 16:54 33.940317 -118.399800 34 136ft 0kts
28-May-17 16:55 33.940317 -118.399800 34 136ft 0kts
28-May-17 16:56 33.940317 -118.399800 34 136ft 0kts
28-May-17 16:57 33.940317 -118.399800 34 136ft 0kts
28-May-17 16:58 33.940317 -118.399800 34 136ft 0kts
28-May-17 16:59 33.940317 -118.399800 34 136ft 0kts
28-May-17 17:00 33.940317 -118.399800 34 136ft 0kts
28-May-17 17:01 33.940317 -118.399800 34 136ft 0kts
28-May-17 17:02 33.940317 -118.399800 34 136ft 0kts
28-May-17 17:03 33.940317 -118.399800 34 136ft 0kts
28-May-17 17:04 33.940317 -118.399800 34 136ft 0kts
28-May-17 17:05 33.940090 -118.400243 88 136ft 2kts
28-May-17 17:06 33.940275 -118.400676 174 136ft 0kts
28-May-17 17:07 33.940274 -118.400676 174 136ft 0kts
28-May-17 17:08 33.940274 -118.400676 174 136ft 0kts
28-May-17 17:09 33.940274 -118.400676 174 136ft 0kts
28-May-17 17:10 33.940274 -118.400676 174 136ft 0kts
28-May-17 17:11 33.940274 -118.400676 174 136ft 0kts
28-May-17 17:12 33.940274 -118.400676 174 136ft 0kts
28-May-17 17:13 33.940274 -118.400676 174 136ft 0kts
28-May-17 17:14 33.940274 -118.400676 174 136ft 0kts
28-May-17 17:15 33.940274 -118.400676 174 136ft 0kts
28-May-17 17:16 33.940274 -118.400676 174 136ft 0kts
28-May-17 17:17 33.939085 -118.400435 147 136ft 7kts
28-May-17 17:18 33.938997 -118.397840 81 136ft 9kts
28-May-17 17:19 33.939345 -118.394359 84 136ft 11kts
28-May-17 17:20 33.939887 -118.389232 81 136ft 15kts
28-May-17 17:21 33.940408 -118.383985 82 136ft 15kts
28-May-17 17:22 33.940716 -118.380747 102 136ft 0kts
28-May-17 17:23 33.940716 -118.380747 102 136ft 0kts
28-May-17 17:24 33.940716 -118.380747 102 136ft 0kts
28-May-17 17:25 33.939710 -118.380962 271 136ft 13kts
28-May-17 17:26 33.935798 -118.419913 263 1289ft 176kts
28-May-17 17:27 33.927967 -118.488600 261 4391ft 244kts
28-May-17 17:28 33.907352 -118.569935 214 7394ft 271kts
28-May-17 17:29 33.847215 -118.544393 106 10455ft 282kts
28-May-17 17:30 33.888320 -118.465023 34 13106ft 318kts
28-May-17 17:31 33.961541 -118.402895 35 15026ft 327kts
28-May-17 17:32 34.013163 -118.300616 60 15913ft 394kts
28-May-17 17:33 34.073501 -118.188717 55 18697ft 406kts
28-May-17 17:34 34.132937 -118.082641 55 20877ft 421kts
28-May-17 17:35 34.199307 -117.964060 54 23014ft 435kts
28-May-17 17:36 34.267765 -117.841032 54 24879ft 451kts
28-May-17 17:37 34.338858 -117.714022 54 26615ft 463kts
28-May-17 17:38 34.413892 -117.587493 52 27022ft 466kts
28-May-17 17:39 34.489332 -117.460012 52 27023ft 466kts
28-May-17 17:40 34.563012 -117.334048 53 27021ft 466kts
28-May-17 17:41 34.638399 -117.206890 53 27020ft 466kts
28-May-17 17:42 34.713370 -117.079149 53 26967ft 466kts
28-May-17 17:43 34.788450 -116.950453 53 26967ft 466kts
28-May-17 17:44 34.863021 -116.822124 53 26968ft 466kts
28-May-17 17:45 34.937828 -116.692919 53 26968ft 466kts
28-May-17 17:46 35.011763 -116.563629 53 26889ft 468kts
28-May-17 17:47 35.085142 -116.436720 53 24985ft 452kts
28-May-17 17:48 35.158560 -116.335482 44 24003ft 443kts
28-May-17 17:49 35.244194 -116.227913 44 23993ft 443kts
28-May-17 17:50 35.330083 -116.119853 44 23993ft 443kts
28-May-17 17:51 35.415805 -116.011670 44 23994ft 443kts
28-May-17 17:52 35.501301 -115.904630 44 22638ft 435kts
28-May-17 17:53 35.584034 -115.800039 44 20639ft 422kts
28-May-17 17:54 35.664194 -115.697964 44 18645ft 410kts
28-May-17 17:55 35.743094 -115.599133 36 16646ft 400kts
28-May-17 17:56 35.845976 -115.567319 0 14701ft 386kts
28-May-17 17:57 35.950615 -115.550542 26 12851ft 379kts
28-May-17 17:58 36.010114 -115.452713 68 11503ft 357kts
28-May-17 17:59 36.034285 -115.343913 97 10986ft 308kts
28-May-17 18:00 36.028161 -115.246064 98 10684ft 267kts
28-May-17 18:01 36.024913 -115.193038 98 9883ft 261kts
28-May-17 18:02 36.018841 -115.110312 96 9133ft 235kts
28-May-17 18:03 36.013759 -115.030287 95 7969ft 232kts
28-May-17 18:04 36.008999 -114.950561 95 7977ft 233kts
28-May-17 18:05 36.012137 -114.871896 53 7497ft 238kts
28-May-17 18:06 36.063129 -114.883757 292 6586ft 225kts
28-May-17 18:07 36.077361 -114.956745 256 5400ft 217kts
28-May-17 18:08 36.073257 -115.023267 277 4345ft 186kts
28-May-17 18:09 36.073642 -115.082708 275 2903ft 150kts
28-May-17 18:10 36.073638 -115.131686 272 2168ft 149kts
28-May-17 18:11 36.074486 -115.154680 299 2152ft 11kts
28-May-17 18:12 36.074854 -115.155457 303 2152ft 7kts
28-May-17 18:13 36.078116 -115.158223 0 2152ft 13kts
28-May-17 18:14 36.081547 -115.157925 59 2152ft 11kts
28-May-17 18:15 36.082815 -115.154516 340 2152ft 14kts
28-May-17 18:16 36.083375 -115.153139 156 2152ft 1kts
28-May-17 18:17 36.083356 -115.153129 156 2152ft 0kts
28-May-17 18:18 36.083356 -115.153129 156 2152ft 0kts
28-May-17 18:19 36.083356 -115.153129 156 2152ft 0kts
28-May-17 18:20 36.083356 -115.153129 156 2152ft 0kts
28-May-17 18:21 36.083356 -115.153129 156 2152ft 0kts
28-May-17 18:22 36.083356 -115.153129 156 2152ft 0kts
28-May-17 18:23 36.083356 -115.153129 156 2152ft 0kts
28-May-17 18:24 36.083356 -115.153129 156 2152ft 0kts
28-May-17 18:25 36.083356 -115.153129 156 2152ft 0kts

Navigation Log

Ident Type
Flight plan parsing failed, navigation log unavailable